Portada
METAR-TAF:

METAR-TAF

Aeroports :

Bàssora, Iraq

latitud: 30-32-56N, longitud: 47-39-45E, altitud: 1 m

Observació

L'informe es va fer fa 26 minuts, a les 02:00 UTC
Vent 10 kt del Oest
Temperatura 30°C
Humitat 31%
Pressió 996 hPa
Visibilitat 10 km o més
sense núvols per sota de 1500 mi sense presència de cumulonimbus.

METAR: ORMM 160200Z 27010KT CAVOK 30/11 Q0996 NOSIG

Hora: 05:26 (02:26 UTC)

Pronòstic

L'informe es va fer fa 4 hores i 26 minuts, a les 22:00 UTC
Pronòstic vàlid del 16 a les 00 UTC al 16 a les 24 UTC
Vent 14 kt del Oest
Visibilitat 10 km o més
sense núvols per sota de 1500 mi sense presència de cumulonimbus.
Temporalment
l' 16 a les 08 UTC al 16 a les 12 UTC
Vent 17 kt del Nord-Oest amb ràfegues de 27 kt
Visibilitat: 7000 m

TAF: ORMM 152200Z 1600/1624 26014KT CAVOK TEMPO 1608/1612 31017G27KT 7000 NSC

Observacions i pronòstics meteorològics de més de 4000 aeroports (METAR i TAF).

Les estacions disponibles són els punts grocs i vermells al mapa.

Posi el ratolí al punt desitjat per veure el nom de l'estació.

Feu clic per veure les observacions i els pronòstics meteorològics.

Per canviar el mapa: feu clic els botons verds amb una creu de color negre per apropar; al botó verd amb un guió per allunyar la imatge; o en les fletxes verdes per a mapes adjacents.


METAR-TAF: